Time;durP1;ratioP1;P1;durP2;ratioP2;P2;SDS_P1;SDS_P2;PMS_P1;PMS_P2;Temp;Humidity;BMP_temperature;BMP_pressure;BME280_temperature;BME280_humidity;BME280_pressure;Samples;Min_cycle;Max_cycle;Signal;HPM_P1;HPM_P2
2020/12/12 00:00:47;;;;;;;14.60;13.07;;;;;;;;;;5093174;28;20031;-52
2020/12/12 00:03:13;;;;;;;15.43;10.83;;;;;;;;;;5092450;28;20387;-57
2020/12/12 00:05:40;;;;;;;13.13;10.63;;;;;;;;;;5092874;28;20410;-55
2020/12/12 00:08:05;;;;;;;14.97;11.47;;;;;;;;;;5084061;28;20428;-57
2020/12/12 00:10:30;;;;;;;13.70;10.67;;;;;;;;;;5087658;28;20016;-55
2020/12/12 00:12:55;;;;;;;14.47;11.20;;;;;;;;;;5092734;28;20016;-53
2020/12/12 00:15:20;;;;;;;15.67;12.37;;;;;;;;;;5092700;28;20030;-56
2020/12/12 00:17:46;;;;;;;15.93;12.67;;;;;;;;;;5092647;28;20020;-57
2020/12/12 00:20:11;;;;;;;14.77;12.00;;;;;;;;;;5089982;28;20112;-56
2020/12/12 00:22:37;;;;;;;15.13;12.07;;;;;;;;;;5091571;28;20071;-57
2020/12/12 00:25:03;;;;;;;14.87;12.30;;;;;;;;;;5092612;28;20028;-57
2020/12/12 00:27:28;;;;;;;15.67;12.17;;;;;;;;;;5090596;28;20363;-56
2020/12/12 00:29:54;;;;;;;18.83;13.87;;;;;;;;;;5088449;28;20027;-56
2020/12/12 00:32:19;;;;;;;18.37;12.93;;;;;;;;;;5092300;28;20501;-55
2020/12/12 00:34:44;;;;;;;15.00;11.30;;;;;;;;;;5092299;28;20466;-56
2020/12/12 00:37:09;;;;;;;16.20;12.13;;;;;;;;;;5091191;28;20027;-56
2020/12/12 00:39:34;;;;;;;17.07;12.93;;;;;;;;;;5089689;28;20016;-56
2020/12/12 00:42:00;;;;;;;17.30;12.73;;;;;;;;;;5091734;28;20101;-56
2020/12/12 00:44:26;;;;;;;17.40;12.50;;;;;;;;;;5092450;28;20020;-55
2020/12/12 00:46:51;;;;;;;15.90;13.73;;;;;;;;;;5092089;28;20016;-57
2020/12/12 00:49:16;;;;;;;16.20;12.30;;;;;;;;;;5089857;28;20035;-56
2020/12/12 00:51:41;;;;;;;16.13;12.20;;;;;;;;;;5092258;28;20020;-56
2020/12/12 00:54:06;;;;;;;17.33;11.53;;;;;;;;;;5091816;28;20030;-56
2020/12/12 00:56:32;;;;;;;16.70;12.57;;;;;;;;;;5091125;28;20111;-55
2020/12/12 00:58:57;;;;;;;16.77;12.70;;;;;;;;;;5088522;28;20027;-55
2020/12/12 01:01:23;;;;;;;16.03;12.17;;;;;;;;;;5089065;28;20038;-55
2020/12/12 01:03:48;;;;;;;14.97;12.07;;;;;;;;;;5092249;28;20024;-54
2020/12/12 01:06:14;;;;;;;17.07;11.93;;;;;;;;;;5086016;28;20023;-56
2020/12/12 01:08:39;;;;;;;16.63;11.90;;;;;;;;;;5083309;28;20024;-56
2020/12/12 01:11:05;;;;;;;16.07;13.13;;;;;;;;;;5090103;28;20024;-56
2020/12/12 01:13:31;;;;;;;15.07;12.03;;;;;;;;;;5092054;28;20048;-52
2020/12/12 01:15:56;;;;;;;15.83;12.33;;;;;;;;;;5090538;28;20055;-57
2020/12/12 01:18:21;;;;;;;15.73;12.73;;;;;;;;;;5088628;28;20020;-57
2020/12/12 01:20:46;;;;;;;15.90;12.57;;;;;;;;;;5090942;28;20028;-55
2020/12/12 01:23:12;;;;;;;14.17;10.80;;;;;;;;;;5089527;28;20056;-53
2020/12/12 01:25:38;;;;;;;16.47;12.90;;;;;;;;;;5087176;28;20025;-55
2020/12/12 01:28:06;;;;;;;15.07;11.13;;;;;;;;;;5079228;28;20074;-55
2020/12/12 01:30:32;;;;;;;15.40;11.00;;;;;;;;;;5086643;28;20020;-57
2020/12/12 01:32:57;;;;;;;14.97;11.37;;;;;;;;;;5091187;28;20024;-53
2020/12/12 01:35:23;;;;;;;14.93;12.53;;;;;;;;;;5091475;28;20027;-57
2020/12/12 01:37:48;;;;;;;16.20;11.97;;;;;;;;;;5091014;28;20020;-58
2020/12/12 01:40:13;;;;;;;15.67;12.20;;;;;;;;;;5085232;28;20024;-55
2020/12/12 01:42:38;;;;;;;14.63;10.43;;;;;;;;;;5091583;28;20463;-56
2020/12/12 01:45:05;;;;;;;16.07;12.90;;;;;;;;;;5091362;28;20066;-56
2020/12/12 01:47:30;;;;;;;14.87;10.93;;;;;;;;;;5091559;28;20043;-55
2020/12/12 01:49:55;;;;;;;12.70;9.93;;;;;;;;;;5087189;28;20036;-54
2020/12/12 01:52:21;;;;;;;14.90;10.50;;;;;;;;;;5089895;28;20115;-58
2020/12/12 01:54:47;;;;;;;13.30;10.37;;;;;;;;;;5091372;28;20020;-58
2020/12/12 01:57:12;;;;;;;13.60;10.90;;;;;;;;;;5087314;28;20043;-55
2020/12/12 01:59:37;;;;;;;12.50;9.30;;;;;;;;;;5084225;28;20020;-57
2020/12/12 02:02:03;;;;;;;12.53;9.90;;;;;;;;;;5090144;28;20372;-57
2020/12/12 02:04:29;;;;;;;11.27;8.93;;;;;;;;;;5091566;28;20020;-55
2020/12/12 02:06:54;;;;;;;12.13;8.63;;;;;;;;;;5091510;28;20016;-56
2020/12/12 02:09:20;;;;;;;12.67;9.23;;;;;;;;;;5086595;28;20428;-57
2020/12/12 02:11:45;;;;;;;11.03;9.10;;;;;;;;;;5089164;28;20016;-55
2020/12/12 02:14:11;;;;;;;14.43;10.07;;;;;;;;;;5095286;28;20027;-58
2020/12/12 02:16:53;;;;;;;12.50;9.60;;;;;;;;;;5094690;28;20024;-56
2020/12/12 02:19:18;;;;;;;12.27;9.00;;;;;;;;;;5092086;28;20417;-56
2020/12/12 02:21:46;;;;;;;11.57;8.87;;;;;;;;;;5095138;28;20024;-57
2020/12/12 02:24:12;;;;;;;11.50;8.73;;;;;;;;;;5094685;28;20131;-58
2020/12/12 02:26:37;;;;;;;10.53;7.60;;;;;;;;;;5094988;28;20062;-56
2020/12/12 02:29:02;;;;;;;10.77;8.60;;;;;;;;;;5091507;28;20055;-56
2020/12/12 02:31:27;;;;;;;9.17;7.53;;;;;;;;;;5094515;28;20117;-57
2020/12/12 02:33:53;;;;;;;10.33;7.83;;;;;;;;;;5095192;28;20020;-55
2020/12/12 02:36:18;;;;;;;10.30;8.33;;;;;;;;;;5094869;28;20061;-55
2020/12/12 02:38:43;;;;;;;9.43;7.70;;;;;;;;;;5090833;28;20066;-54
2020/12/12 02:41:09;;;;;;;12.63;8.90;;;;;;;;;;5094983;28;20024;-55
2020/12/12 02:43:34;;;;;;;9.77;7.77;;;;;;;;;;5094246;28;20386;-56
2020/12/12 02:45:59;;;;;;;9.73;7.90;;;;;;;;;;5094636;28;20383;-57
2020/12/12 02:48:25;;;;;;;10.13;8.87;;;;;;;;;;5090320;28;20023;-57
2020/12/12 02:50:50;;;;;;;10.60;8.13;;;;;;;;;;5094265;28;20042;-57
2020/12/12 02:53:15;;;;;;;10.40;7.40;;;;;;;;;;5093978;28;20031;-52
2020/12/12 02:55:40;;;;;;;9.67;6.63;;;;;;;;;;5094528;28;20023;-56
2020/12/12 02:58:05;;;;;;;9.53;7.17;;;;;;;;;;5093143;28;20109;-57
2020/12/12 03:00:31;;;;;;;9.97;7.30;;;;;;;;;;5091060;28;20501;-58
2020/12/12 03:02:56;;;;;;;10.90;8.07;;;;;;;;;;5094568;28;20031;-56
2020/12/12 03:05:21;;;;;;;9.17;6.97;;;;;;;;;;5094740;28;20020;-56
2020/12/12 03:07:46;;;;;;;9.93;7.83;;;;;;;;;;5093729;28;20068;-54
2020/12/12 03:10:12;;;;;;;11.03;8.20;;;;;;;;;;5091080;28;20390;-55
2020/12/12 03:12:37;;;;;;;10.67;7.97;;;;;;;;;;5094283;28;20482;-56
2020/12/12 03:15:07;;;;;;;10.30;8.23;;;;;;;;;;5093814;28;20024;-56
2020/12/12 03:17:32;;;;;;;9.60;8.13;;;;;;;;;;5093623;28;20102;-57
2020/12/12 03:19:57;;;;;;;10.03;7.80;;;;;;;;;;5091011;28;20103;-57
2020/12/12 03:22:23;;;;;;;10.53;7.83;;;;;;;;;;5093786;28;20065;-55
2020/12/12 03:24:48;;;;;;;10.30;8.30;;;;;;;;;;5094379;28;20051;-54
2020/12/12 03:27:13;;;;;;;10.63;8.77;;;;;;;;;;5093694;28;20445;-56
2020/12/12 03:29:38;;;;;;;9.97;7.93;;;;;;;;;;5090944;28;20598;-56
2020/12/12 03:32:05;;;;;;;12.00;8.13;;;;;;;;;;5093495;28;20525;-56
2020/12/12 03:34:30;;;;;;;11.23;9.37;;;;;;;;;;5093978;28;20016;-55
2020/12/12 03:36:55;;;;;;;10.27;6.73;;;;;;;;;;5093128;28;20049;-56
2020/12/12 03:39:20;;;;;;;9.83;7.80;;;;;;;;;;5090300;28;20475;-57
2020/12/12 03:41:45;;;;;;;11.33;7.73;;;;;;;;;;5093258;28;20027;-56
2020/12/12 03:44:11;;;;;;;10.20;7.57;;;;;;;;;;5090899;28;20048;-56
2020/12/12 03:46:36;;;;;;;10.20;7.93;;;;;;;;;;5093803;28;20157;-56
2020/12/12 03:49:01;;;;;;;11.40;7.40;;;;;;;;;;5089834;28;20095;-56
2020/12/12 03:51:26;;;;;;;10.73;8.33;;;;;;;;;;5089553;28;20103;-53
2020/12/12 03:53:51;;;;;;;10.97;7.30;;;;;;;;;;5093378;28;20028;-56
2020/12/12 03:56:17;;;;;;;11.50;8.03;;;;;;;;;;5093063;28;20024;-54
2020/12/12 03:58:42;;;;;;;11.90;8.33;;;;;;;;;;5090390;28;20016;-55
2020/12/12 04:01:07;;;;;;;10.93;8.97;;;;;;;;;;5092792;28;20016;-55
2020/12/12 04:03:32;;;;;;;12.43;9.10;;;;;;;;;;5092133;28;20039;-56
2020/12/12 04:05:58;;;;;;;11.27;7.53;;;;;;;;;;5093290;28;20020;-58
2020/12/12 04:08:23;;;;;;;10.53;8.50;;;;;;;;;;5089236;28;20520;-55
2020/12/12 04:10:48;;;;;;;10.47;7.70;;;;;;;;;;5093282;28;20532;-56
2020/12/12 04:13:13;;;;;;;11.53;8.73;;;;;;;;;;5092884;28;20028;-57
2020/12/12 04:15:38;;;;;;;10.00;8.17;;;;;;;;;;5093139;28;20095;-53
2020/12/12 04:18:04;;;;;;;11.53;8.80;;;;;;;;;;5091281;28;20018;-55
2020/12/12 04:20:29;;;;;;;11.00;8.20;;;;;;;;;;5079522;28;20103;-54
2020/12/12 04:22:54;;;;;;;11.60;7.90;;;;;;;;;;5092869;28;20044;-56
2020/12/12 04:25:19;;;;;;;12.10;8.20;;;;;;;;;;5092380;28;20020;-56
2020/12/12 04:27:45;;;;;;;11.23;8.50;;;;;;;;;;5092117;28;20034;-55
2020/12/12 04:30:10;;;;;;;9.80;7.70;;;;;;;;;;5089426;28;20526;-56
2020/12/12 04:32:35;;;;;;;11.73;8.20;;;;;;;;;;5092774;28;20077;-55
2020/12/12 04:35:01;;;;;;;10.80;7.83;;;;;;;;;;5091436;28;20024;-55
2020/12/12 04:37:26;;;;;;;10.83;8.43;;;;;;;;;;5092140;28;20012;-57
2020/12/12 04:39:51;;;;;;;10.20;7.97;;;;;;;;;;5089495;28;20026;-57
2020/12/12 04:42:17;;;;;;;11.97;8.10;;;;;;;;;;5092310;28;20051;-56
2020/12/12 04:44:42;;;;;;;11.70;8.30;;;;;;;;;;5092259;28;20028;-56
2020/12/12 04:47:07;;;;;;;11.10;8.10;;;;;;;;;;5091836;28;20023;-57
2020/12/12 04:49:34;;;;;;;10.77;8.07;;;;;;;;;;5089428;28;20020;-56
2020/12/12 04:52:01;;;;;;;11.80;9.20;;;;;;;;;;5092425;28;20016;-55
2020/12/12 04:54:30;;;;;;;12.23;8.03;;;;;;;;;;5092029;28;20055;-53
2020/12/12 04:56:57;;;;;;;11.30;8.37;;;;;;;;;;5091912;28;20020;-56
2020/12/12 04:59:26;;;;;;;10.93;7.70;;;;;;;;;;5088102;28;20039;-55
2020/12/12 05:01:51;;;;;;;12.43;8.83;;;;;;;;;;5092264;28;20047;-57
2020/12/12 05:04:16;;;;;;;11.60;8.40;;;;;;;;;;5092526;28;20539;-53
2020/12/12 05:06:42;;;;;;;11.57;8.50;;;;;;;;;;5092272;28;20023;-58
2020/12/12 05:09:07;;;;;;;12.70;9.07;;;;;;;;;;5088611;28;20066;-57
2020/12/12 05:11:34;;;;;;;12.13;8.43;;;;;;;;;;5092039;28;20459;-56
2020/12/12 05:13:59;;;;;;;14.73;9.40;;;;;;;;;;5085984;28;20032;-57
2020/12/12 05:16:24;;;;;;;11.90;8.87;;;;;;;;;;5092214;28;20020;-51
2020/12/12 05:18:50;;;;;;;13.97;9.93;;;;;;;;;;5089105;28;20020;-56
2020/12/12 05:21:16;;;;;;;12.30;9.20;;;;;;;;;;5092254;28;20522;-57
2020/12/12 05:23:41;;;;;;;12.13;8.77;;;;;;;;;;5091531;28;20055;-55
2020/12/12 05:26:06;;;;;;;14.27;10.03;;;;;;;;;;5091855;28;20405;-58
2020/12/12 05:28:32;;;;;;;14.37;10.27;;;;;;;;;;5088758;28;20110;-57
2020/12/12 05:30:57;;;;;;;13.77;9.80;;;;;;;;;;5092038;28;20024;-57
2020/12/12 05:33:23;;;;;;;14.80;10.37;;;;;;;;;;5091956;28;20417;-57
2020/12/12 05:35:49;;;;;;;13.40;9.83;;;;;;;;;;5091766;28;20024;-56
2020/12/12 05:38:14;;;;;;;13.80;10.50;;;;;;;;;;5088690;28;20020;-57
2020/12/12 05:40:41;;;;;;;14.63;11.17;;;;;;;;;;5083684;28;20479;-57
2020/12/12 05:43:07;;;;;;;15.37;10.60;;;;;;;;;;5090968;28;20027;-57
2020/12/12 05:45:33;;;;;;;13.50;10.33;;;;;;;;;;5088617;28;20031;-57
2020/12/12 05:47:58;;;;;;;15.43;11.00;;;;;;;;;;5094954;28;20038;-54
2020/12/12 05:50:24;;;;;;;16.70;12.13;;;;;;;;;;5093470;28;20025;-54
2020/12/12 05:52:53;;;;;;;15.10;11.87;;;;;;;;;;5095267;28;20389;-55
2020/12/12 05:55:22;;;;;;;16.27;12.27;;;;;;;;;;5095362;28;20020;-54
2020/12/12 05:57:48;;;;;;;17.23;11.33;;;;;;;;;;5095473;28;20028;-55
2020/12/12 06:00:13;;;;;;;15.60;11.87;;;;;;;;;;5092604;28;20394;-56
2020/12/12 06:02:41;;;;;;;17.37;11.67;;;;;;;;;;5095795;28;20020;-55
2020/12/12 06:05:06;;;;;;;16.37;11.57;;;;;;;;;;5095170;28;20024;-57
2020/12/12 06:07:33;;;;;;;13.90;10.63;;;;;;;;;;5095196;28;20016;-58
2020/12/12 06:10:05;;;;;;;16.20;11.47;;;;;;;;;;5092158;28;20099;-57
2020/12/12 06:12:31;;;;;;;15.40;10.77;;;;;;;;;;5095291;28;20500;-55
2020/12/12 06:14:57;;;;;;;14.53;10.63;;;;;;;;;;5094886;28;20016;-55
2020/12/12 06:17:28;;;;;;;15.63;11.57;;;;;;;;;;5094961;28;20054;-56
2020/12/12 06:19:56;;;;;;;14.90;11.07;;;;;;;;;;5092256;28;20099;-57
2020/12/12 06:22:22;;;;;;;18.07;13.23;;;;;;;;;;5095092;28;20046;-57
2020/12/12 06:24:56;;;;;;;14.23;10.80;;;;;;;;;;5095360;28;20047;-57
2020/12/12 06:27:21;;;;;;;15.23;11.07;;;;;;;;;;5094787;28;20016;-54
2020/12/12 06:29:47;;;;;;;16.13;11.70;;;;;;;;;;5091554;28;20024;-56
2020/12/12 06:32:16;;;;;;;13.80;10.27;;;;;;;;;;5094625;28;21400;-57
2020/12/12 06:34:49;;;;;;;16.83;11.20;;;;;;;;;;5095312;28;20035;-58
2020/12/12 06:37:33;;;;;;;13.97;10.33;;;;;;;;;;5094274;28;20027;-56
2020/12/12 06:40:00;;;;;;;14.93;11.33;;;;;;;;;;5085289;28;20055;-57
2020/12/12 06:42:32;;;;;;;14.43;11.37;;;;;;;;;;5095009;28;20020;-57
2020/12/12 06:44:58;;;;;;;15.00;10.17;;;;;;;;;;5094491;28;20486;-55
2020/12/12 06:47:37;;;;;;;13.80;10.17;;;;;;;;;;5095053;28;20032;-56
2020/12/12 06:50:10;;;;;;;12.77;9.23;;;;;;;;;;5091459;28;20031;-57
2020/12/12 06:52:36;;;;;;;13.50;9.20;;;;;;;;;;5078159;28;20038;-56
2020/12/12 06:55:03;;;;;;;13.60;8.87;;;;;;;;;;5094356;28;20013;-56
2020/12/12 06:57:33;;;;;;;11.37;8.30;;;;;;;;;;5080178;28;20082;-56
2020/12/12 06:59:58;;;;;;;11.03;8.50;;;;;;;;;;5090360;28;20020;-56
2020/12/12 07:02:23;;;;;;;11.20;8.20;;;;;;;;;;5094620;28;20420;-57
2020/12/12 07:04:49;;;;;;;11.63;8.20;;;;;;;;;;5094423;28;20466;-55
2020/12/12 07:07:16;;;;;;;9.43;7.40;;;;;;;;;;5093947;28;20026;-56
2020/12/12 07:09:41;;;;;;;9.37;6.40;;;;;;;;;;5083137;28;20013;-56
2020/12/12 07:12:07;;;;;;;8.57;6.90;;;;;;;;;;5094342;28;20477;-54
2020/12/12 07:14:33;;;;;;;11.37;6.87;;;;;;;;;;5093882;28;20466;-57
2020/12/12 07:16:59;;;;;;;11.53;8.53;;;;;;;;;;5093876;28;20031;-55
2020/12/12 07:19:30;;;;;;;10.60;7.20;;;;;;;;;;5090683;28;20016;-56
2020/12/12 07:21:55;;;;;;;8.87;6.80;;;;;;;;;;5094589;28;20069;-57
2020/12/12 07:24:21;;;;;;;9.37;7.23;;;;;;;;;;5092236;28;20052;-57
2020/12/12 07:26:46;;;;;;;8.37;6.37;;;;;;;;;;5094125;28;20020;-57
2020/12/12 07:29:11;;;;;;;9.30;7.07;;;;;;;;;;5069379;28;20029;-58
2020/12/12 07:31:36;;;;;;;8.90;6.43;;;;;;;;;;5093579;28;20047;-54
2020/12/12 07:34:02;;;;;;;10.00;7.23;;;;;;;;;;5093314;28;20023;-57
2020/12/12 07:36:27;;;;;;;8.40;6.07;;;;;;;;;;5093946;28;20496;-58
2020/12/12 07:38:52;;;;;;;10.80;7.20;;;;;;;;;;5090933;28;20427;-52
2020/12/12 07:41:17;;;;;;;9.93;7.10;;;;;;;;;;5093732;28;20016;-53
2020/12/12 07:43:50;;;;;;;8.80;6.67;;;;;;;;;;5093670;28;20024;-52
2020/12/12 07:46:15;;;;;;;9.93;7.33;;;;;;;;;;5093721;28;20263;-52
2020/12/12 07:48:40;;;;;;;8.60;6.37;;;;;;;;;;5090581;28;20367;-57
2020/12/12 07:51:15;;;;;;;9.50;7.10;;;;;;;;;;5093523;28;20024;-55
2020/12/12 07:53:40;;;;;;;11.23;6.63;;;;;;;;;;5093247;28;20412;-57
2020/12/12 07:56:07;;;;;;;8.87;6.43;;;;;;;;;;5092866;28;20101;-55
2020/12/12 07:58:35;;;;;;;9.90;7.87;;;;;;;;;;5090299;28;20020;-57
2020/12/12 08:01:02;;;;;;;11.03;8.00;;;;;;;;;;5093394;28;20058;-56
2020/12/12 08:03:28;;;;;;;10.20;7.23;;;;;;;;;;5093314;28;20020;-56
2020/12/12 08:06:04;;;;;;;12.20;8.13;;;;;;;;;;5085237;28;20038;-56
2020/12/12 08:08:30;;;;;;;11.17;7.47;;;;;;;;;;5089879;28;20012;-58
2020/12/12 08:11:01;;;;;;;9.87;7.70;;;;;;;;;;5092508;28;20062;-55
2020/12/12 08:13:30;;;;;;;11.07;7.77;;;;;;;;;;5092860;28;20104;-57
2020/12/12 08:16:11;;;;;;;10.53;8.73;;;;;;;;;;5092474;28;20031;-57
2020/12/12 08:18:36;;;;;;;12.30;8.63;;;;;;;;;;5086688;28;20071;-58
2020/12/12 08:21:20;;;;;;;12.90;8.73;;;;;;;;;;5093241;28;20036;-56
2020/12/12 08:23:45;;;;;;;13.03;9.10;;;;;;;;;;5092068;28;20506;-58
2020/12/12 08:26:11;;;;;;;13.43;8.73;;;;;;;;;;5092354;28;20055;-54
2020/12/12 08:28:37;;;;;;;13.00;9.33;;;;;;;;;;5089815;28;20024;-57
2020/12/12 08:31:09;;;;;;;15.00;9.83;;;;;;;;;;5092422;28;20114;-58
2020/12/12 08:33:34;;;;;;;13.30;10.10;;;;;;;;;;5093014;28;20103;-56
2020/12/12 08:36:29;;;;;;;13.67;10.13;;;;;;;;;;5092580;28;20107;-57
2020/12/12 08:38:55;;;;;;;13.93;10.90;;;;;;;;;;5067986;28;20119;-54
2020/12/12 08:41:26;;;;;;;14.50;9.97;;;;;;;;;;5091610;28;20466;-56
2020/12/12 08:43:51;;;;;;;14.80;10.93;;;;;;;;;;5092617;28;20027;-56
2020/12/12 08:46:17;;;;;;;14.27;10.67;;;;;;;;;;5092825;28;20065;-58
2020/12/12 08:48:43;;;;;;;14.27;10.30;;;;;;;;;;5089647;28;20034;-56
2020/12/12 08:51:09;;;;;;;15.53;10.53;;;;;;;;;;5092441;28;20428;-58
2020/12/12 08:53:41;;;;;;;15.63;11.20;;;;;;;;;;5091996;28;20020;-56
2020/12/12 08:56:06;;;;;;;13.23;10.43;;;;;;;;;;5092102;28;20028;-57
2020/12/12 08:58:32;;;;;;;15.23;10.83;;;;;;;;;;5089073;28;20008;-56
2020/12/12 09:01:14;;;;;;;14.93;11.37;;;;;;;;;;5090632;28;20019;-57
2020/12/12 09:03:48;;;;;;;15.60;10.73;;;;;;;;;;5091369;28;20119;-55
2020/12/12 09:06:13;;;;;;;16.03;11.37;;;;;;;;;;5092279;28;20458;-57
2020/12/12 09:08:38;;;;;;;15.27;11.13;;;;;;;;;;5088344;28;20085;-56
2020/12/12 09:11:12;;;;;;;15.43;11.60;;;;;;;;;;5091794;28;20022;-57
2020/12/12 09:13:38;;;;;;;15.10;10.80;;;;;;;;;;5092415;28;20439;-56
2020/12/12 09:16:03;;;;;;;15.43;11.53;;;;;;;;;;5092094;28;20115;-55
2020/12/12 09:18:29;;;;;;;16.03;10.67;;;;;;;;;;5088811;28;20107;-57
2020/12/12 09:20:54;;;;;;;15.20;10.90;;;;;;;;;;5092001;28;20016;-55
2020/12/12 09:23:19;;;;;;;15.83;10.63;;;;;;;;;;5091592;28;20052;-56
2020/12/12 09:25:44;;;;;;;14.43;10.63;;;;;;;;;;5090886;28;20032;-55
2020/12/12 09:28:09;;;;;;;16.53;11.90;;;;;;;;;;5088667;28;20156;-56
2020/12/12 09:30:35;;;;;;;15.90;10.80;;;;;;;;;;5078045;28;20043;-57
2020/12/12 09:33:00;;;;;;;14.75;10.32;;;;;;;;;;5091798;28;20148;-56
2020/12/12 09:35:25;;;;;;;15.48;10.35;;;;;;;;;;5092345;28;20531;-56
2020/12/12 09:37:50;;;;;;;16.05;11.32;;;;;;;;;;5091250;28;20023;-56
2020/12/12 09:40:15;;;;;;;14.65;9.95;;;;;;;;;;5088366;28;20020;-55
2020/12/12 09:42:41;;;;;;;13.65;10.13;;;;;;;;;;5091748;28;20089;-56
2020/12/12 09:45:06;;;;;;;13.85;9.75;;;;;;;;;;5091645;28;20474;-57
2020/12/12 09:47:31;;;;;;;14.10;9.90;;;;;;;;;;5091611;28;20051;-57
2020/12/12 09:49:56;;;;;;;14.30;10.48;;;;;;;;;;5087881;28;20043;-57
2020/12/12 09:52:22;;;;;;;14.30;10.32;;;;;;;;;;5090889;28;20054;-55
2020/12/12 09:54:47;;;;;;;15.88;10.85;;;;;;;;;;5091369;28;20016;-54
2020/12/12 09:57:12;;;;;;;15.32;11.23;;;;;;;;;;5089859;28;20074;-57
2020/12/12 09:59:38;;;;;;;14.48;10.85;;;;;;;;;;5087940;28;20013;-57
2020/12/12 10:02:03;;;;;;;15.27;10.85;;;;;;;;;;5089024;28;20016;-56
2020/12/12 10:04:28;;;;;;;14.15;10.13;;;;;;;;;;5091503;28;20073;-56
2020/12/12 10:06:54;;;;;;;14.68;11.45;;;;;;;;;;5090547;28;20031;-58
2020/12/12 10:09:19;;;;;;;17.20;11.00;;;;;;;;;;5087089;28;20031;-57
2020/12/12 10:11:48;;;;;;;13.77;10.43;;;;;;;;;;5090752;28;20024;-55
2020/12/12 10:14:13;;;;;;;13.68;9.48;;;;;;;;;;5082690;28;20081;-57
2020/12/12 10:16:38;;;;;;;13.68;10.90;;;;;;;;;;5090673;28;20012;-57
2020/12/12 10:19:03;;;;;;;14.10;9.57;;;;;;;;;;5084203;28;20113;-58
2020/12/12 10:21:29;;;;;;;12.90;9.05;;;;;;;;;;5087733;28;20022;-58
2020/12/12 10:23:54;;;;;;;15.02;10.25;;;;;;;;;;5087725;28;20036;-56
2020/12/12 10:26:19;;;;;;;13.20;9.70;;;;;;;;;;5082452;28;20471;-55
2020/12/12 10:28:44;;;;;;;14.82;10.57;;;;;;;;;;5086890;28;20024;-55
2020/12/12 10:31:09;;;;;;;14.07;11.57;;;;;;;;;;5081679;28;20024;-53
2020/12/12 10:33:35;;;;;;;13.88;10.75;;;;;;;;;;5089797;28;20024;-57
2020/12/12 10:36:00;;;;;;;14.45;9.65;;;;;;;;;;5090376;28;20020;-58
2020/12/12 10:38:25;;;;;;;14.55;10.07;;;;;;;;;;5088407;28;20019;-54
2020/12/12 10:41:01;;;;;;;14.27;9.80;;;;;;;;;;5094365;28;20016;-56
2020/12/12 10:43:27;;;;;;;14.20;9.88;;;;;;;;;;5091872;28;20020;-56
2020/12/12 10:45:52;;;;;;;13.13;9.48;;;;;;;;;;5088271;28;20398;-58
2020/12/12 10:48:17;;;;;;;13.45;8.82;;;;;;;;;;5089351;28;20614;-58
2020/12/12 10:50:43;;;;;;;14.27;10.52;;;;;;;;;;5090615;28;20385;-56
2020/12/12 10:53:08;;;;;;;11.80;9.50;;;;;;;;;;5085210;28;20031;-57
2020/12/12 10:55:34;;;;;;;13.15;10.02;;;;;;;;;;5089061;28;20027;-57
2020/12/12 10:58:00;;;;;;;12.77;9.10;;;;;;;;;;5091974;28;20027;-57
2020/12/12 11:00:27;;;;;;;14.02;9.60;;;;;;;;;;5089763;28;20122;-54
2020/12/12 11:02:52;;;;;;;15.50;10.02;;;;;;;;;;5090151;28;20035;-55
2020/12/12 11:05:18;;;;;;;14.13;9.57;;;;;;;;;;5092346;28;20071;-56
2020/12/12 11:07:43;;;;;;;11.65;9.00;;;;;;;;;;5089351;28;20024;-56
2020/12/12 11:10:08;;;;;;;14.13;9.23;;;;;;;;;;5085984;28;20406;-56
2020/12/12 11:12:34;;;;;;;13.07;9.73;;;;;;;;;;5090674;28;20470;-54
2020/12/12 11:14:59;;;;;;;13.68;9.18;;;;;;;;;;5084754;28;20024;-55
2020/12/12 11:17:24;;;;;;;13.90;9.25;;;;;;;;;;5093263;28;20052;-55
2020/12/12 11:19:49;;;;;;;14.02;9.65;;;;;;;;;;5084793;28;20035;-54
2020/12/12 11:22:15;;;;;;;14.73;9.70;;;;;;;;;;5084840;28;20012;-54
2020/12/12 11:24:40;;;;;;;13.18;9.55;;;;;;;;;;5084171;28;20044;-57
2020/12/12 11:27:06;;;;;;;13.55;10.23;;;;;;;;;;5085252;28;20028;-57
2020/12/12 11:29:31;;;;;;;12.75;9.23;;;;;;;;;;5085283;28;20015;-56
2020/12/12 11:31:56;;;;;;;13.32;10.00;;;;;;;;;;5090345;28;20066;-56
2020/12/12 11:39:31;;;;;;;13.52;9.45;;;;;;;;;;5081650;28;20356;-55
2020/12/12 11:45:10;;;;;;;14.20;9.40;;;;;;;;;;5094128;28;20409;-56
2020/12/12 11:47:10;;;;;;;13.02;9.32;;;;;;;;;;5075360;28;20079;-56
2020/12/12 11:49:36;;;;;;;12.05;8.02;;;;;;;;;;5090762;28;20056;-57
2020/12/12 11:52:02;;;;;;;12.10;8.15;;;;;;;;;;5086170;28;20085;-55
2020/12/12 11:54:28;;;;;;;12.93;8.75;;;;;;;;;;5090155;28;20359;-56
2020/12/12 11:56:53;;;;;;;13.23;9.40;;;;;;;;;;5091473;28;20107;-56
2020/12/12 11:59:18;;;;;;;13.60;9.30;;;;;;;;;;5090162;28;20024;-56
2020/12/12 12:01:43;;;;;;;11.88;8.50;;;;;;;;;;5093223;28;20024;-57
2020/12/12 12:04:08;;;;;;;11.20;8.05;;;;;;;;;;5091929;28;20027;-57
2020/12/12 12:06:34;;;;;;;11.77;8.55;;;;;;;;;;5090815;28;20020;-56
2020/12/12 12:11:33;;;;;;;12.13;7.97;;;;;;;;;;5088607;28;20024;-53
2020/12/12 12:13:59;;;;;;;10.38;7.47;;;;;;;;;;5092584;28;20043;-55
2020/12/12 12:16:25;;;;;;;11.93;8.73;;;;;;;;;;5081357;28;20021;-55
2020/12/12 12:18:50;;;;;;;12.27;9.00;;;;;;;;;;5085124;28;20437;-55
2020/12/12 12:21:16;;;;;;;10.88;8.40;;;;;;;;;;5092382;28;20061;-57
2020/12/12 12:23:42;;;;;;;12.65;8.27;;;;;;;;;;5092405;28;20143;-56
2020/12/12 12:26:08;;;;;;;11.27;7.97;;;;;;;;;;5092341;28;20077;-57
2020/12/12 12:28:33;;;;;;;10.73;7.43;;;;;;;;;;5088449;28;20279;-56
2020/12/12 12:30:58;;;;;;;11.63;7.40;;;;;;;;;;5091751;28;20103;-56
2020/12/12 12:33:24;;;;;;;11.30;7.53;;;;;;;;;;5092566;28;20082;-57
2020/12/12 12:35:49;;;;;;;11.05;8.10;;;;;;;;;;5092647;28;20023;-57
2020/12/12 12:38:14;;;;;;;10.98;8.25;;;;;;;;;;5089281;28;20302;-56
2020/12/12 12:40:40;;;;;;;10.30;7.68;;;;;;;;;;5092306;28;20031;-57
2020/12/12 12:43:05;;;;;;;9.65;7.20;;;;;;;;;;5092318;28;20024;-55
2020/12/12 12:45:30;;;;;;;11.15;7.80;;;;;;;;;;5092609;28;20024;-58
2020/12/12 12:47:56;;;;;;;11.20;7.78;;;;;;;;;;5087180;28;20027;-57
2020/12/12 12:50:33;;;;;;;11.63;7.65;;;;;;;;;;5089805;28;20327;-57
2020/12/12 12:52:58;;;;;;;11.18;7.90;;;;;;;;;;5078123;28;20027;-57
2020/12/12 12:55:24;;;;;;;10.43;7.60;;;;;;;;;;5091087;28;20016;-57
2020/12/12 12:57:49;;;;;;;9.90;7.88;;;;;;;;;;5092257;28;20020;-57
2020/12/12 13:00:14;;;;;;;10.85;7.50;;;;;;;;;;5089461;28;20876;-58
2020/12/12 13:02:39;;;;;;;10.35;7.05;;;;;;;;;;5091963;28;20020;-56
2020/12/12 13:05:04;;;;;;;9.77;7.13;;;;;;;;;;5091743;28;20023;-58
2020/12/12 13:07:30;;;;;;;9.48;7.53;;;;;;;;;;5090802;28;20027;-56
2020/12/12 13:09:55;;;;;;;12.50;7.82;;;;;;;;;;5087962;28;20016;-57
2020/12/12 13:12:20;;;;;;;11.25;8.25;;;;;;;;;;5092057;28;20016;-58
2020/12/12 13:14:45;;;;;;;11.27;7.68;;;;;;;;;;5090146;28;20020;-58
2020/12/12 13:17:11;;;;;;;11.32;7.07;;;;;;;;;;5084448;28;20300;-55
2020/12/12 13:19:46;;;;;;;9.70;7.63;;;;;;;;;;5079312;28;20019;-57
2020/12/12 13:22:11;;;;;;;11.60;7.63;;;;;;;;;;5090735;28;20055;-58
2020/12/12 13:24:37;;;;;;;11.60;7.07;;;;;;;;;;5091503;28;20055;-57
2020/12/12 13:27:03;;;;;;;10.50;7.28;;;;;;;;;;5091113;28;20028;-57
2020/12/12 13:32:11;;;;;;;10.48;7.45;;;;;;;;;;5087624;28;20030;-58
2020/12/12 13:34:37;;;;;;;11.88;7.55;;;;;;;;;;5091297;28;20012;-58
2020/12/12 13:37:02;;;;;;;10.85;7.57;;;;;;;;;;5091056;28;20343;-55
2020/12/12 13:39:29;;;;;;;11.63;7.97;;;;;;;;;;5087971;28;20370;-57
2020/12/12 13:41:54;;;;;;;11.43;7.90;;;;;;;;;;5090354;28;20020;-57
2020/12/12 13:44:20;;;;;;;11.82;8.00;;;;;;;;;;5091427;28;20020;-57
2020/12/12 13:46:45;;;;;;;10.50;8.27;;;;;;;;;;5091334;28;20435;-56
2020/12/12 13:49:10;;;;;;;12.30;8.48;;;;;;;;;;5087402;28;20039;-57
2020/12/12 13:51:35;;;;;;;11.63;8.68;;;;;;;;;;5090991;28;20020;-57
2020/12/12 13:54:01;;;;;;;11.82;8.73;;;;;;;;;;5082641;28;20057;-56
2020/12/12 13:56:26;;;;;;;11.65;8.73;;;;;;;;;;5091514;28;20031;-56
2020/12/12 13:58:51;;;;;;;9.70;6.93;;;;;;;;;;5085685;28;20032;-57
2020/12/12 14:01:17;;;;;;;10.68;8.18;;;;;;;;;;5088580;28;20059;-55
2020/12/12 14:03:43;;;;;;;12.50;8.50;;;;;;;;;;5084533;28;20446;-56
2020/12/12 14:06:09;;;;;;;10.80;7.82;;;;;;;;;;5089251;28;20016;-57
2020/12/12 14:24:45;;;;;;;12.70;9.30;;;;;;;;;;5095291;28;20102;-58
2020/12/12 14:29:54;;;;;;;14.20;9.40;;;;;;;;;;5089939;28;20066;-58
2020/12/12 14:32:19;;;;;;;11.35;7.90;;;;;;;;;;5094851;28;20051;-56
2020/12/12 14:34:44;;;;;;;12.73;9.07;;;;;;;;;;5092575;28;20032;-57
2020/12/12 14:37:09;;;;;;;12.07;9.18;;;;;;;;;;5087906;28;20046;-55
2020/12/12 14:39:35;;;;;;;11.82;8.50;;;;;;;;;;5087701;28;20031;-57
2020/12/12 14:42:00;;;;;;;12.90;8.93;;;;;;;;;;5088770;28;20106;-58
2020/12/12 14:44:26;;;;;;;11.88;8.70;;;;;;;;;;5091280;28;20082;-56
2020/12/12 14:46:51;;;;;;;13.15;8.60;;;;;;;;;;5084836;28;20451;-55
2020/12/12 14:49:17;;;;;;;13.35;8.80;;;;;;;;;;5090130;28;20415;-58
2020/12/12 14:51:42;;;;;;;11.77;8.45;;;;;;;;;;5094204;28;20525;-58